Tiempo atmosférico en la estación meteorológica de Escorca, Lluc, Illes Balears (490 m.)



Fecha
DESCASC
Temp. máxima en grados centígrados (hora)
DESCASC
Temp. mínima en grados centígrados (hora)
DESCASC
Temp. media en grados centígrados
DESCASC
Racha de viento máxima en m/sg (hora)
DESCASC
Velocidad máxima media en intervalos de 10 minutos(hora)
DESCASC
Precipitaciones diarias en mm
DESCASC
Precipitaciones de 00:00 a 06:00 en mm
DESCASC
Precipitaciones de 06:00 a 12:00 en mm
DESCASC
Precipitaciones de 12:00 a 18:00 en mm
DESCASC
Precipitaciones de 18:00 a 24:00 en mm
DESCASC
20-05-2018 20.2 (14:40) 7.6 (06:40) 13.9 6.67 (17:30) 2.22 (17:30) 0 0 0 0 0
19-05-2018 20.6 (12:50) 6.4 (06:20) 13.5 6.11 (14:10) 2.5 (13:50) 0 0 0 0 0
18-05-2018 16.7 (10:30) 10.4 (00:00) 13.6 6.11 (16:50) 1.94 (10:40) 0 0 0 0 0
17-05-2018 20.1 (12:00) 6.6 (00:00) 13.4 7.22 (18:20) 2.5 (15:00) 0 0 0 0 0
16-05-2018 20 (14:30) 5.1 (00:00) 12.5 5.28 (11:20) 2.22 (11:20) 0 0 0 0 0
15-05-2018 18.6 (15:20) 5.4 (00:00) 12 7.5 (10:10) 2.22 (12:20) 0 0 0 0 0
14-05-2018 14.6 (14:10) 6.4 (00:00) 10.5 8.61 (00:30) 2.22 (09:10) 1.3 1.3 0 0 0
13-05-2018 14.5 (00:20) 6.6 (00:00) 10.5 11.94 (05:40) 3.06 (05:50) 20.1 16.7 3.3 0.1 0
12-05-2018 21.3 (13:30) 7.7 (00:00) 14.5 12.22 (23:00) 3.33 (22:50) 0 0 0 0 0
11-05-2018 20.5 (15:30) 8.9 (07:00) 14.7 8.33 (12:40) 3.33 (12:10) 0 0 0 0 0
10-05-2018 19.2 (13:40) 8.5 (00:00) 13.9 6.94 (15:10) 2.5 (14:10) 1.6 0 0 1.6 0
09-05-2018 19.7 (11:10) 9.2 (00:00) 14.5 6.39 (14:10) 2.5 (14:10) 0 0 0 0 0
08-05-2018 19.3 (12:40) 7.6 (00:00) 13.4 5.83 (10:10) 2.5 (10:10) 0 0 0 0 0
07-05-2018 20.2 (11:30) 6 (00:00) 13.1 5.56 (16:00) 2.22 (12:00) 0 0 0 0 0
06-05-2018 17.2 (17:00) 8.9 (00:00) 13.1 6.67 (13:00) 2.5 (17:00) 0.1 0 0.1 0 0
05-05-2018 12.7 (19:00) 9.3 (00:00) 11 6.11 (08:40) 1.67 (09:40) 15.2 1 9.7 4.5 0
04-05-2018 12.4 (12:30) 9.1 (00:00) 10.8 6.39 (20:40) 1.39 (03:00) 9 0 2.1 5.8 1.1
03-05-2018 18.7 (13:50) 3.9 (00:00) 11.3 6.11 (15:10) 1.94 (14:40) 0 0 0 0 0
02-05-2018 14.8 (15:00) 5.2 (00:00) 10 9.17 (09:10) 2.22 (11:30) 0.1 0.1 0 0 0
01-05-2018 11.4 (14:30) 7 (02:40) 9.2 6.94 (15:30) 3.33 (15:30) 12.3 0 10 2.3 0
30-04-2018 16.5 (14:30) 6.4 (00:00) 11.5 8.89 (01:10) 2.22 (01:40) 0 0 0 0 0
29-04-2018 16.9 (14:10) 12.2 (00:00) 14.5 16.67 (19:30) 4.17 (19:30) 0.2 0 0.2 0 0
28-04-2018 21 (13:00) 8.5 (00:00) 14.8 13.61 (16:00) 4.44 (15:10) 0 0 0 0 0
27-04-2018 -- (--) -- (--) -- 7.5 (15:40) 2.78 (14:50) 0 0 0 0 0
26-04-2018 17.6 (00:00) 8.9 (00:00) 13.3 10.56 (11:30) 2.78 (13:40) 0 0 0 0 0
25-04-2018 20.1 (16:40) 14.3 (00:00) 17.2 11.11 (14:30) 3.61 (14:30) 0 0 0 0 0
24-04-2018 22.5 (12:20) 12.6 (00:00) 17.6 7.5 (08:50) 2.78 (14:10) 0 0 0 0 0
23-04-2018 21.7 (13:30) 12.6 (00:00) 17.2 8.61 (16:40) 2.78 (15:00) 0 0 0 0 0
22-04-2018 21.1 (13:10) 7.9 (00:00) 14.5 8.06 (19:10) 2.78 (18:50) 0 0 0 0 0

Gráficas

Temp. máximas Temp. mínimas Temp. medias Precipitaciones Rachas de viento máximas Velocidades máximas media en intervalos de 10 minutos

Datos horarios

Fecha y hora oficial Temperatura (ºC) Velocidad del viento (km/h) Dirección del viento Racha (km/h) Dirección de racha Precipitación (mm) Presión (hPa) Tendencia (hPa) Humedad (%)
2018-05-21 23:00:00 12.8 0 Calma 2 Sudeste 0 -- -- 86
2018-05-21 22:00:00 13.4 0 Calma 5 Sudoeste 0 -- -- 83
2018-05-21 21:00:00 15.1 0 Calma 6 Sur 0 -- -- 79
2018-05-21 20:00:00 16.4 0 Calma 11 Sur 0 -- -- 74
2018-05-21 19:00:00 17.8 2 Sudeste 13 Sur 0 -- -- 62
2018-05-21 18:00:00 17.7 0 Calma 14 Sudoeste 0 -- -- 64
2018-05-21 17:00:00 19.1 3 Sur 14 Sur 0 -- -- 56
2018-05-21 16:00:00 18.3 4 Sur 18 Sudeste 0 -- -- 63
2018-05-21 15:00:00 17.9 4 Sur 20 Sudoeste 0 -- -- 64
2018-05-21 14:00:00 18.2 4 Sur 14 Sudoeste 0 -- -- 61
2018-05-21 13:00:00 17.6 3 Sur 16 Sudoeste 0 -- -- 66
2018-05-21 12:00:00 17.4 0 Calma 8 Sudeste 0 -- -- 58
2018-05-21 11:00:00 14.7 0 Calma 5 Noroeste 0 -- -- 87
2018-05-21 10:00:00 13 0 Calma 8 Este 0.1 -- -- 89
2018-05-21 09:00:00 11.9 0 Calma 20 Sudoeste 5.8 -- -- 89
2018-05-21 08:00:00 13.2 0 Calma -- -- 0 -- -- 89
2018-05-21 07:00:00 12.7 0 Calma -- -- 0 -- -- 89
2018-05-21 06:00:00 12.7 0 Calma -- -- 0 -- -- 89
2018-05-21 05:00:00 12.6 0 Calma -- -- 0 -- -- 89
2018-05-21 04:00:00 12.6 0 Calma -- -- 0 -- -- 88
2018-05-21 03:00:00 12.5 0 Calma -- -- 0 -- -- 88
2018-05-21 02:00:00 12.5 0 Calma -- -- 0 -- -- 87
2018-05-21 01:00:00 12.9 0 Calma -- -- 0 -- -- 87
2018-05-21 00:00:00 13.7 0 Calma -- -- 0 -- -- 86
2018-05-20 23:00:00 14 0 Calma -- -- 0 -- -- 83
2018-05-20 22:00:00 14.2 0 Calma -- -- 0 -- -- 82
2018-05-20 21:00:00 15.2 0 Calma 9 Sudeste 0 -- -- 76
2018-05-20 20:00:00 16 4 Sudeste 18 Sudeste 0 -- -- 72
2018-05-20 19:00:00 16.8 6 Sudeste 17 Sudeste 0 -- -- 64
2018-05-20 18:00:00 17.6 5 Sur 24 Sudeste 0 -- -- 64
2018-05-20 17:00:00 17.6 5 Sudeste 20 Sur 0 -- -- 63
2018-05-20 16:00:00 17.7 2 Sudeste 16 Sudoeste 0 -- -- 60
2018-05-20 15:00:00 18.8 0 Calma 20 Sudoeste 0 -- -- 54
2018-05-20 14:00:00 18.8 2 Sudeste 13 Este 0 -- -- 54
2018-05-20 13:00:00 19.9 2 Sur 18 Este 0 -- -- 53
2018-05-20 12:00:00 19.1 5 Oeste 10 Oeste 0 -- -- 52
2018-05-20 11:00:00 17.5 0 Calma 9 Este 0 -- -- 57
2018-05-20 10:00:00 16.4 0 Calma 8 Oeste 0 -- -- 62
2018-05-20 09:00:00 14.6 0 Calma 0 Calma 0 -- -- 84
2018-05-20 08:00:00 9.1 0 Calma 0 Calma 0 -- -- 89
2018-05-20 07:00:00 7.8 0 Calma 0 Calma 0 -- -- 89
2018-05-20 06:00:00 7.9 0 Calma 2 Sudeste 0 -- -- 89
2018-05-20 05:00:00 7.9 0 Calma 0 Calma 0 -- -- 88
2018-05-20 04:00:00 8 0 Calma 2 Este 0 -- -- 88
2018-05-20 03:00:00 8.3 0 Calma -- -- 0 -- -- 87
2018-05-20 02:00:00 8.6 0 Calma 0 Calma 0 -- -- 86
2018-05-20 01:00:00 9.4 0 Calma 3 Este 0 -- -- 83
2018-05-20 00:00:00 10.6 0 Calma 3 Sudeste 0 -- -- 79
2018-05-19 23:00:00 12.5 0 Calma 12 Este 0 -- -- 73
2018-05-19 22:00:00 13.2 0 Calma 0 Calma 0 -- -- 62
2018-05-19 21:00:00 14.6 0 Calma 10 Sur 0 -- -- 52
2018-05-19 20:00:00 16.8 2 Sur 10 Sudeste 0 -- -- 46
2018-05-19 19:00:00 17.6 3 Sudeste 14 Sudoeste 0 -- -- 46
2018-05-19 18:00:00 18.5 4 Sur 15 Sudeste 0 -- -- 45
2018-05-19 17:00:00 18.4 4 Sudeste 17 Este 0 -- -- 42
2018-05-19 16:00:00 20.2 4 Sur 18 Este 0 -- -- 42
2018-05-19 15:00:00 20.1 3 Nordeste 22 Este 0 -- -- 41
2018-05-19 14:00:00 19.8 7 Este 21 Este 0 -- -- 41
2018-05-19 13:00:00 19.7 4 Este 19 Este 0 -- -- 40
2018-05-19 12:00:00 19.6 4 Nordeste 18 Este 0 -- -- 43
2018-05-19 11:00:00 18.8 2 Este 13 Este 0 -- -- 45
2018-05-19 10:00:00 17.7 3 Sudoeste 13 Sudoeste 0 -- -- 48
2018-05-19 09:00:00 14.2 4 Sudoeste 13 Oeste 0 -- -- 81
2018-05-19 08:00:00 7.5 0 Calma 6 Sudeste 0 -- -- 89
2018-05-19 07:00:00 6.5 0 Calma 4 Este 0 -- -- 89
2018-05-19 06:00:00 6.7 0 Calma 0 Calma 0 -- -- 89
2018-05-19 05:00:00 7.2 0 Calma 5 Sudeste 0 -- -- 89
2018-05-19 04:00:00 7.5 0 Calma -- -- 0 -- -- 89
2018-05-19 03:00:00 7.9 0 Calma -- -- 0 -- -- 88
2018-05-19 02:00:00 8.7 0 Calma 5 Sudeste 0 -- -- 87
2018-05-19 01:00:00 9.5 0 Calma 6 Sudeste 0 -- -- 86
2018-05-19 00:00:00 10.4 0 Calma 14 Sudoeste 0 -- -- 83
2018-05-18 23:00:00 11.4 5 Sudoeste 19 Sudeste 0 -- -- 80
2018-05-18 22:00:00 12.1 5 Sudoeste 14 Sur 0 -- -- 77
2018-05-18 21:00:00 13.1 4 Sur 15 Sur 0 -- -- 73
2018-05-18 20:00:00 14 3 Sur 16 Sur 0 -- -- 68
2018-05-18 19:00:00 15.1 3 Sudeste 17 Este 0 -- -- 68
2018-05-18 18:00:00 15.4 3 Sudeste 15 Sudeste 0 -- -- 64
2018-05-18 17:00:00 15.9 2 Sudeste 22 Este 0 -- -- 66
2018-05-18 16:00:00 16.4 6 Norte 18 Nordeste 0 -- -- 63
2018-05-18 15:00:00 15.5 4 Norte 19 Este 0 -- -- 69
2018-05-18 14:00:00 15.6 6 Nordeste 18 Este 0 -- -- 64
2018-05-18 13:00:00 15.1 6 Nordeste 16 Nordeste 0 -- -- 67
2018-05-18 12:00:00 15.2 0 Calma 15 Este 0 -- -- 69
2018-05-18 11:00:00 15.9 3 Sudeste 14 Este 0 -- -- 66
2018-05-18 10:00:00 15.5 0 Calma 14 Este 0 -- -- 72
2018-05-18 09:00:00 13.7 2 Sur 12 Sudoeste 0 -- -- 77
2018-05-18 08:00:00 12.8 0 Calma 18 Sur 0 -- -- 81
2018-05-18 07:00:00 12.8 3 Sudeste 15 Este 0 -- -- 81
2018-05-18 06:00:00 12.6 0 Calma 11 Este 0 -- -- 80
2018-05-18 05:00:00 12.5 3 Este 15 Sudeste 0 -- -- 79
2018-05-18 04:00:00 11.6 0 Calma 11 Sur 0 -- -- 76
2018-05-18 03:00:00 11.1 0 Calma 6 Sudeste 0 -- -- 76
2018-05-18 02:00:00 11.5 0 Calma 7 Noroeste 0 -- -- 73
2018-05-18 01:00:00 12.5 0 Calma 10 Este 0 -- -- 66
2018-05-18 00:00:00 12.4 0 Calma 7 Oeste 0 -- -- 67
2018-05-17 23:00:00 12.5 0 Calma 6 Oeste 0 -- -- 62
2018-05-17 22:00:00 13.8 0 Calma 9 Norte 0 -- -- 58
2018-05-17 21:00:00 15.1 0 Calma 10 Este 0 -- -- 54
2018-05-17 20:00:00 16.6 0 Calma 12 Sudeste 0 -- -- 53
2018-05-17 19:00:00 16.9 3 Oeste 26 Este 0 -- -- 53
2018-05-17 18:00:00 17.8 0 Calma 18 Este 0 -- -- 51
2018-05-17 17:00:00 18.1 5 Este 24 Este 0 -- -- 48
2018-05-17 16:00:00 18.2 3 Este 22 Este 0 -- -- 48
2018-05-17 15:00:00 18 9 Nordeste 21 Norte 0 -- -- 49
2018-05-17 14:00:00 18.6 8 Este 20 Este 0 -- -- 47
2018-05-17 13:00:00 18.8 5 Nordeste 17 Nordeste 0 -- -- 44
2018-05-17 12:00:00 19.4 3 Oeste 13 Sudoeste 0 -- -- 41
2018-05-17 11:00:00 17.8 0 Calma 13 Este 0 -- -- 40
2018-05-17 10:00:00 17.3 0 Calma 14 Este 0 -- -- 46
2018-05-17 09:00:00 14.3 2 Noroeste 7 Noroeste 0 -- -- 75
2018-05-17 08:00:00 8.1 0 Calma -- -- 0 -- -- 89
2018-05-17 07:00:00 7 0 Calma -- -- 0 -- -- 89
2018-05-17 06:00:00 6.8 0 Calma -- -- 0 -- -- 89
2018-05-17 05:00:00 7.2 0 Calma -- -- 0 -- -- 89
2018-05-17 04:00:00 7.6 0 Calma -- -- 0 -- -- 88
2018-05-17 03:00:00 8 0 Calma -- -- 0 -- -- 87
2018-05-17 02:00:00 8.6 0 Calma -- -- 0 -- -- 87
2018-05-17 01:00:00 9.3 0 Calma -- -- 0 -- -- 85
2018-05-17 00:00:00 10.2 0 Calma -- -- 0 -- -- 81
2018-05-16 23:00:00 11.6 0 Calma 6 Este 0 -- -- 75
2018-05-16 22:00:00 13.4 0 Calma 10 Este 0 -- -- 67
2018-05-16 21:00:00 14.3 2 Sudeste 15 Sur 0 -- -- 62
2018-05-16 20:00:00 15.8 4 Sur 16 Sudeste 0 -- -- 53
2018-05-16 19:00:00 17.4 3 Sur 13 Sudeste 0 -- -- 47
2018-05-16 18:00:00 18.1 3 Sudeste 15 Sudoeste 0 -- -- 45
2018-05-16 17:00:00 18.7 4 Sur 15 Sudoeste 0 -- -- 44
2018-05-16 16:00:00 19 3 Sur 18 Sur 0 -- -- 43
2018-05-16 15:00:00 18.7 3 Sudeste 13 Sur 0 -- -- 44
2018-05-16 14:00:00 18.6 4 Este 18 Sudeste 0 -- -- 42
2018-05-16 13:00:00 19.4 7 Sudeste 18 Sudoeste 0 -- -- 39
2018-05-16 12:00:00 18.6 6 Este 19 Sudeste 0 -- -- 42
2018-05-16 11:00:00 18.5 5 Sudeste 17 Sudeste 0 -- -- 47
2018-05-16 10:00:00 16.7 3 Sudeste 11 Sudeste 0 -- -- 44
2018-05-16 09:00:00 13.4 0 Calma 4 Sudeste 0 -- -- 70
2018-05-16 08:00:00 6.6 0 Calma 0 Calma 0 -- -- 89
2018-05-16 07:00:00 5.2 0 Calma 3 Este 0 -- -- 89
2018-05-16 06:00:00 5.4 0 Calma 3 Sudeste 0 -- -- 88
2018-05-16 05:00:00 5.7 0 Calma 5 Sudoeste 0 -- -- 88
2018-05-16 04:00:00 6 0 Calma -- -- 0 -- -- 87
2018-05-16 03:00:00 6.5 0 Calma -- -- 0 -- -- 87
2018-05-16 02:00:00 6.9 0 Calma -- -- 0 -- -- 86
2018-05-16 01:00:00 7.4 0 Calma -- -- 0 -- -- 85
2018-05-16 00:00:00 8.3 0 Calma -- -- 0 -- -- 83
2018-05-15 23:00:00 9.3 0 Calma 5 Este 0 -- -- 77
2018-05-15 22:00:00 11.3 3 Este 6 Este 0 -- -- 77
2018-05-15 21:00:00 11.9 0 Calma 4 Sudeste 0 -- -- 70
2018-05-15 20:00:00 13.5 0 Calma 9 Sur 0 -- -- 57
2018-05-15 19:00:00 15.1 2 Sudeste 13 Sudoeste 0 -- -- 47
2018-05-15 18:00:00 15 3 Sur 14 Este 0 -- -- 48
2018-05-15 17:00:00 15.5 6 Este 18 Nordeste 0 -- -- 55
2018-05-15 16:00:00 17.5 3 Sur 15 Sudoeste 0 -- -- 48
2018-05-15 15:00:00 17.8 4 Sur 20 Este 0 -- -- 43
2018-05-15 14:00:00 17.2 5 Sudeste 18 Sur 0 -- -- 52
2018-05-15 13:00:00 17.6 3 Sudeste 19 Este 0 -- -- 50
2018-05-15 12:00:00 15.7 5 Sudeste 20 Sur 0 -- -- 59
2018-05-15 11:00:00 15.7 4 Sudeste 27 Este 0 -- -- 60
2018-05-15 10:00:00 14.7 5 Sur 18 Sudeste 0 -- -- 67
2018-05-15 09:00:00 12.8 4 Sudeste 12 Sudeste 0 -- -- 74
2018-05-15 08:00:00 7 0 Calma 4 Sudeste 0 -- -- 89
2018-05-15 07:00:00 5.6 0 Calma -- -- 0 -- -- 89
2018-05-15 06:00:00 5.5 0 Calma 4 Sudeste 0 -- -- 89
2018-05-15 05:00:00 5.7 0 Calma 4 Sur 0 -- -- 88
2018-05-15 04:00:00 6 0 Calma 6 Sudeste 0 -- -- 87
2018-05-15 03:00:00 6.5 0 Calma 4 Sudeste 0 -- -- 86
2018-05-15 02:00:00 6.6 0 Calma 0 Calma 0 -- -- 85
2018-05-15 01:00:00 5.8 0 Calma 3 Sudeste 0 -- -- 83
2018-05-15 00:00:00 6.5 0 Calma 4 Sudeste 0 -- -- 77
2018-05-14 23:00:00 6.6 0 Calma 5 Sudeste 0 -- -- 71
2018-05-14 22:00:00 7.7 0 Calma 5 Sudeste 0 -- -- 61
2018-05-14 21:00:00 9.7 0 Calma 13 Sur 0 -- -- 49
2018-05-14 20:00:00 12.1 5 Sudeste 15 Sudeste 0 -- -- 36
2018-05-14 19:00:00 12.3 3 Sudeste 15 Sur 0 -- -- 37
2018-05-14 18:00:00 13.4 4 Sudeste 17 Sudoeste 0 -- -- 39
2018-05-14 17:00:00 13 3 Sudeste 21 Sudeste 0 -- -- 42
2018-05-14 16:00:00 13 6 Sur 20 Sudeste 0 -- -- 49
2018-05-14 15:00:00 14 7 Sur 24 Sudeste 0 -- -- 52
2018-05-14 14:00:00 13.6 5 Sur 20 Sur 0 -- -- 49
2018-05-14 13:00:00 11.9 4 Sur 23 Sudoeste 0 -- -- 62
2018-05-14 12:00:00 11.9 6 Sudeste 23 Sudeste 0 -- -- 57
2018-05-14 11:00:00 12 4 Sur 20 Sur 0 -- -- 61
2018-05-14 10:00:00 11.8 4 Sur 26 Sur 0 -- -- 63
2018-05-14 09:00:00 10.7 7 Sudeste 30 Sudeste 0 -- -- 66
2018-05-14 08:00:00 10 6 Sudeste 25 Sudeste 0 -- -- 63
2018-05-14 07:00:00 9.8 6 Sudeste 31 Sudeste 0 -- -- 65
2018-05-14 06:00:00 10 6 Sudeste 18 Sudeste 0 -- -- 81
2018-05-14 05:00:00 10.1 3 Sur 23 Sudeste 0 -- -- 85
2018-05-14 04:00:00 9.8 7 Sudoeste 29 Sudeste 1.3 -- -- 81
2018-05-14 03:00:00 10.4 0 Calma 20 Nordeste 0 -- -- 57
2018-05-14 02:00:00 10.4 3 Sudoeste 22 Sudoeste 0 -- -- 49
2018-05-14 01:00:00 11.2 4 Sur 31 Oeste 0 -- -- 45
2018-05-11 20:00:00 16.5 5 Sudeste 22 Sudeste 0 -- -- 52
2018-05-11 19:00:00 17.7 9 Sur 26 Sudoeste 0 -- -- 48
2018-05-11 18:00:00 18.2 8 Sudeste 24 Sudeste 0 -- -- 45
2018-05-11 17:00:00 19.1 7 Sur 24 Sudoeste 0 -- -- 44
2018-05-11 16:00:00 19.3 7 Sur 23 Sur 0 -- -- 44
2018-05-11 15:00:00 20 8 Sur 26 Sudoeste 0 -- -- 45
2018-05-11 14:00:00 19.6 8 Sur 26 Sur 0 -- -- 46
2018-05-11 13:00:00 20.1 7 Sur 30 Sudoeste 0 -- -- 45
2018-05-11 12:00:00 19.4 11 Sur 24 Sudoeste 0 -- -- 45
2018-05-11 11:00:00 18.2 5 Sudeste 22 Sudoeste 0 -- -- 47
2018-05-11 10:00:00 17.9 9 Sur 25 Sur 0 -- -- 48
2018-05-11 09:00:00 15.8 6 Sur 23 Sur 0 -- -- 54
2018-05-11 08:00:00 9.4 0 Calma -- -- 0 -- -- 89
2018-05-11 07:00:00 9 0 Calma -- -- 0 -- -- 89
2018-05-11 06:00:00 10.1 0 Calma -- -- 0 -- -- 88
2018-05-11 05:00:00 10.4 0 Calma -- -- 0 -- -- 88
2018-05-11 04:00:00 10.8 0 Calma -- -- 0 -- -- 87
2018-05-11 03:00:00 11 0 Calma 3 Noroeste 0 -- -- 86
2018-05-11 02:00:00 11.5 0 Calma 13 Sudeste 0 -- -- 87
2018-05-11 01:00:00 11.8 0 Calma 14 Este 0 -- -- 89
2018-05-11 00:00:00 12.2 0 Calma 13 Sudoeste 0 -- -- 89
2018-05-10 23:00:00 12.6 4 Sudeste 14 Sur 0 -- -- 88
2018-05-10 22:00:00 12.8 0 Calma 19 Sur 0 -- -- 88
2018-05-10 21:00:00 13.1 6 Sur 16 Sur 0 -- -- 88
2018-05-10 20:00:00 13.9 4 Sudeste 15 Sudeste 0 -- -- 88
2018-05-10 19:00:00 13.9 6 Sudeste 21 Sudeste 0 -- -- 87
2018-05-10 18:00:00 15.1 6 Sudeste 14 Sudeste 0 -- -- 83
2018-05-10 17:00:00 14.9 5 Sudeste 18 Sudoeste 1.6 -- -- 83
2018-05-10 16:00:00 16.2 2 Este 25 Sudeste 0 -- -- 61
2018-05-10 15:00:00 17.2 6 Sudeste 22 Sur 0 -- -- 71
2018-05-10 14:00:00 17.8 7 Sudeste 22 Sudeste 0 -- -- 63
2018-05-10 13:00:00 18.2 6 Sur 22 Sur 0 -- -- 55
2018-05-10 12:00:00 18.3 6 Sur 19 Sur 0 -- -- 60
2018-05-10 11:00:00 17.3 5 Sur 15 Sur 0 -- -- 61
2018-05-10 10:00:00 14.2 0 Calma -- -- 0 -- -- 89
2018-05-10 09:00:00 13.5 0 Calma 6 Sur 0 -- -- 89
2018-05-10 08:00:00 11.5 0 Calma 7 Este 0 -- -- 89
2018-05-10 07:00:00 10 0 Calma -- -- 0 -- -- 89
2018-05-10 06:00:00 9.1 0 Calma -- -- 0 -- -- 89
2018-05-10 05:00:00 8.7 0 Calma -- -- 0 -- -- 89
2018-05-10 04:00:00 9.3 0 Calma 0 Calma 0 -- -- 89
2018-05-10 03:00:00 9.9 0 Calma -- -- 0 -- -- 89
2018-05-10 02:00:00 10.1 0 Calma -- -- 0 -- -- 89
2018-05-10 01:00:00 10.2 0 Calma -- -- 0 -- -- 88
2018-05-10 00:00:00 11 0 Calma 2 Sudeste 0 -- -- 88
2018-05-09 23:00:00 12 0 Calma 3 Sur 0 -- -- 87
2018-05-09 22:00:00 13.4 0 Calma 9 Este 0 -- -- 86
2018-05-09 21:00:00 14.4 0 Calma 9 Sur 0 -- -- 85
2018-05-09 20:00:00 15.2 0 Calma 8 Noroeste 0 -- -- 84
2018-05-09 19:00:00 16.2 0 Calma 9 Este 0 -- -- 78
2018-05-09 18:00:00 17.6 0 Calma 13 Este 0 -- -- 72
2018-05-09 17:00:00 17.8 6 Sudeste 19 Sudoeste 0 -- -- 70
2018-05-09 16:00:00 17.3 6 Sur 21 Sudeste 0 -- -- 75
2018-05-09 15:00:00 18 5 Sudeste 23 Sudeste 0 -- -- 71
2018-05-09 14:00:00 16.6 8 Sur 22 Sur 0 -- -- 69
2018-05-09 13:00:00 17.8 2 Sur 14 Sur 0 -- -- 65
2018-05-09 12:00:00 17.1 4 Sur 17 Este 0 -- -- 64
2018-05-09 11:00:00 19.6 3 Sur 12 Sudeste 0 -- -- 54
2018-05-09 10:00:00 17.8 0 Calma 9 Noroeste 0 -- -- 65
2018-05-09 09:00:00 14.6 0 Calma 9 Nordeste 0 -- -- 88
2018-05-09 08:00:00 10.7 0 Calma 3 Sudeste 0 -- -- 89
2018-05-09 07:00:00 9.3 0 Calma 7 Sudeste 0 -- -- 89
2018-05-09 06:00:00 9.8 0 Calma 5 Sudeste 0 -- -- 89
2018-05-09 05:00:00 10 0 Calma 3 Sudeste 0 -- -- 89
2018-05-09 04:00:00 10.6 0 Calma -- -- 0 -- -- 89
2018-05-09 03:00:00 10.9 0 Calma 4 Este 0 -- -- 89
2018-05-09 02:00:00 10.3 0 Calma -- -- 0 -- -- 89
2018-05-09 01:00:00 10.1 0 Calma 0 Calma 0 -- -- 89
2018-05-09 00:00:00 10.3 0 Calma -- -- 0 -- -- 88
2018-05-08 23:00:00 11.2 0 Calma -- -- 0 -- -- 87
2018-05-08 22:00:00 12.3 0 Calma -- -- 0 -- -- 86
2018-05-08 21:00:00 13.7 0 Calma 6 Oeste 0 -- -- 84
2018-05-08 20:00:00 15.5 2 Sudoeste 9 Sur 0 -- -- 79
2018-05-08 19:00:00 16.3 0 Calma 12 Sudoeste 0 -- -- 77
2018-05-08 18:00:00 16.2 3 Sudoeste 11 Sudoeste 0 -- -- 77
2018-05-08 17:00:00 15.8 4 Sudeste 13 Sur 0 -- -- 79
2018-05-08 16:00:00 17.8 3 Oeste 10 Noroeste 0 -- -- 67
2018-05-08 15:00:00 16.6 2 Sudeste 10 Sudoeste 0 -- -- 65
2018-05-08 14:00:00 16.1 2 Este 15 Sudeste 0 -- -- 66
2018-05-08 13:00:00 17.5 4 Sudeste 13 Sur 0 -- -- 60
2018-05-08 12:00:00 18.6 3 Sudeste 13 Este 0 -- -- 50
2018-05-08 11:00:00 17 4 Este 21 Este 0 -- -- 64
2018-05-08 10:00:00 15.3 5 Este 17 Nordeste 0 -- -- 77
2018-05-08 09:00:00 13.9 2 Oeste 7 Oeste 0 -- -- 89
2018-05-08 08:00:00 8.7 0 Calma -- -- 0 -- -- 89
2018-05-08 07:00:00 7.8 0 Calma -- -- 0 -- -- 89
2018-05-08 06:00:00 8.2 0 Calma 3 Sudeste 0 -- -- 89
2018-05-08 05:00:00 8.6 0 Calma -- -- 0 -- -- 89
2018-05-08 04:00:00 9.5 0 Calma -- -- 0 -- -- 89
2018-05-08 03:00:00 9.8 0 Calma -- -- 0 -- -- 89
2018-05-08 02:00:00 10.5 0 Calma 7 Sudeste 0 -- -- 89
2018-05-08 01:00:00 10.9 0 Calma 9 Nordeste 0 -- -- 89
2018-05-08 00:00:00 11.9 2 Este 8 Sudeste 0 -- -- 89
2018-05-07 23:00:00 11.3 0 Calma -- -- 0 -- -- 87
2018-05-07 22:00:00 12.1 0 Calma 5 Sudeste 0 -- -- 87
2018-05-07 21:00:00 13.6 0 Calma 6 Sudoeste 0 -- -- 87
2018-05-07 20:00:00 14.1 2 Sudoeste 9 Sudoeste 0 -- -- 84
2018-05-07 19:00:00 16 0 Calma 18 Sudeste 0 -- -- 74
2018-05-07 18:00:00 17.4 4 Sur 19 Este 0 -- -- 67
2018-05-07 17:00:00 18 6 Sudeste 20 Sudeste 0 -- -- 63
2018-05-07 16:00:00 18.6 3 Sur 20 Sudoeste 0 -- -- 61
2018-05-07 15:00:00 18.4 3 Sudeste 17 Sur 0 -- -- 58
2018-05-07 14:00:00 18.2 3 Sudeste 16 Sudeste 0 -- -- 62
2018-05-07 13:00:00 18 5 Sudeste 14 Sudoeste 0 -- -- 67
2018-05-07 12:00:00 17.5 8 Sur 19 Sur 0 -- -- 65
2018-05-07 11:00:00 19 0 Calma 8 Oeste 0 -- -- 52
2018-05-07 10:00:00 15.7 2 Noroeste 8 Noroeste 0 -- -- 66
2018-05-07 09:00:00 13.3 3 Noroeste 7 Noroeste 0 -- -- 89
2018-05-07 08:00:00 7 0 Calma -- -- 0 -- -- 89
2018-05-07 07:00:00 6.2 0 Calma -- -- 0 -- -- 89
2018-05-07 06:00:00 6.5 0 Calma -- -- 0 -- -- 89
2018-05-07 05:00:00 6.7 0 Calma -- -- 0 -- -- 89
2018-05-07 04:00:00 6.9 0 Calma -- -- 0 -- -- 89
2018-05-07 03:00:00 7.4 0 Calma -- -- 0 -- -- 88
2018-05-07 02:00:00 7.8 0 Calma -- -- 0 -- -- 88
2018-05-07 01:00:00 8.4 0 Calma -- -- 0 -- -- 87
2018-05-07 00:00:00 9.1 0 Calma -- -- 0 -- -- 87
2018-05-06 23:00:00 10.3 0 Calma -- -- 0 -- -- 86
2018-05-06 22:00:00 11.6 0 Calma 8 Sudeste 0 -- -- 84
2018-05-06 21:00:00 13.4 0 Calma 10 Sudeste 0 -- -- 78
2018-05-06 20:00:00 14.7 3 Sudeste 13 Sur 0 -- -- 71
2018-05-06 19:00:00 15.8 5 Sur 16 Sur 0 -- -- 66
2018-05-06 18:00:00 17.2 0 Calma 12 Oeste 0 -- -- 64
2018-05-06 17:00:00 17.2 9 Sudoeste 16 Sudoeste 0 -- -- 69
2018-05-06 16:00:00 15.5 5 Sudoeste 18 Sudoeste 0 -- -- 74
2018-05-06 15:00:00 15 4 Sur 13 Sudeste 0 -- -- 77
2018-05-06 14:00:00 15.2 4 Sudeste 24 Sudoeste 0 -- -- 74
2018-05-06 13:00:00 14.5 7 Sudoeste 24 Sudoeste 0 -- -- 78
2018-05-06 12:00:00 13.5 5 Sur 18 Este 0 -- -- 79
2018-05-06 11:00:00 14.5 4 Sur 15 Este 0 -- -- 75
2018-05-06 10:00:00 14.1 0 Calma 13 Sudoeste 0 -- -- 78
2018-05-06 09:00:00 12.8 0 Calma 11 Sur 0 -- -- 88
2018-05-06 08:00:00 11.2 0 Calma 8 Nordeste 0.1 -- -- 90
2018-05-06 07:00:00 9.2 0 Calma -- -- 0 -- -- 90
2018-05-06 06:00:00 10 0 Calma 10 Norte 0 -- -- 90
2018-05-06 05:00:00 11 0 Calma 9 Oeste 0 -- -- 90
2018-05-06 04:00:00 11.5 3 Norte 10 Oeste 0 -- -- 90
2018-05-06 03:00:00 11.3 0 Calma 9 Sudeste 0 -- -- 90
2018-05-06 02:00:00 11.4 0 Calma 10 Norte 0 -- -- 90
2018-05-06 01:00:00 11.1 0 Calma 8 Este 0 -- -- 90
2018-05-06 00:00:00 11.5 3 Sudeste 19 Sur 0 -- -- 90
2018-05-05 23:00:00 11.3 0 Calma 6 Nordeste 0 -- -- 90
2018-05-05 22:00:00 11 0 Calma 7 Sur 0 -- -- 90
2018-05-05 21:00:00 11.5 0 Calma 6 Este 0 -- -- 90
2018-05-05 20:00:00 12.5 0 Calma 6 Nordeste 0 -- -- 90
2018-05-05 19:00:00 12.6 0 Calma 16 Nordeste 0 -- -- 90
2018-05-05 18:00:00 12.3 2 Este 12 Este 0 -- -- 90
2018-05-05 17:00:00 12 2 Sudoeste 12 Sur 0 -- -- 90
2018-05-05 16:00:00 11.7 0 Calma 9 Sur 0.4 -- -- 90
2018-05-05 15:00:00 11.4 2 Sur 9 Este 0.8 -- -- 90
2018-05-05 14:00:00 11.1 0 Calma 11 Sudoeste 1.6 -- -- 90
2018-05-05 13:00:00 10.7 0 Calma 16 Sudeste 1.7 -- -- 90
2018-05-05 12:00:00 10.7 4 Sudoeste 22 Sudoeste 3 -- -- 90
2018-05-05 11:00:00 10.6 3 Sudeste 17 Sudoeste 0.8 -- -- 90
2018-05-05 10:00:00 10.6 2 Sudeste 15 Sudeste 2.1 -- -- 90
2018-05-05 09:00:00 10.3 4 Sur 22 Sur 1.8 -- -- 89
2018-05-05 08:00:00 10.3 3 Sudeste 13 Sur 1.8 -- -- 89
2018-05-05 07:00:00 10.8 4 Sur 15 Sur 0.2 -- -- 84
2018-05-05 06:00:00 10.5 0 Calma 18 Sudoeste 0 -- -- 85
2018-05-05 05:00:00 10.1 0 Calma 13 Sur 0 -- -- 88
2018-05-05 04:00:00 9.9 2 Sudeste 17 Este 0 -- -- 87
2018-05-05 03:00:00 9.6 2 Este 13 Sudeste 0.1 -- -- 88
2018-05-05 02:00:00 9.5 0 Calma 21 Sudoeste 0 -- -- 87
2018-05-05 01:00:00 9.6 3 Sudeste 10 Sudeste 0.9 -- -- 88
2018-05-05 00:00:00 10.2 3 Sudeste 9 Sur 0 -- -- 88
2018-05-04 23:00:00 10 0 Calma 5 Nordeste 0 -- -- 89
2018-05-04 22:00:00 10 0 Calma 10 Sudoeste 0 -- -- 89
2018-05-04 21:00:00 10 0 Calma 23 Este 0 -- -- 89
2018-05-04 20:00:00 10 3 Este 9 Nordeste 0 -- -- 89
2018-05-04 19:00:00 9.9 0 Calma 13 Sudeste 1.1 -- -- 89
2018-05-04 18:00:00 10.4 2 Sur 12 Sur 0.1 -- -- 89
2018-05-04 17:00:00 10.2 0 Calma 10 Sur 0.2 -- -- 89
2018-05-04 16:00:00 9.7 3 Sudeste 14 Sur 2.6 -- -- 87
2018-05-04 15:00:00 10 4 Sudeste 14 Sur 1.8 -- -- 87
2018-05-04 14:00:00 10.6 5 Sudeste 16 Sudeste 0.7 -- -- 88
2018-05-04 13:00:00 11.8 3 Sur 16 Sur 0.4 -- -- 83
2018-05-04 12:00:00 11.9 2 Sudeste 9 Este 0.2 -- -- 85
2018-05-04 11:00:00 11.6 0 Calma 8 Oeste 0.4 -- -- 90
2018-05-04 10:00:00 10.4 0 Calma 6 Sudeste 0.4 -- -- 89
2018-05-04 09:00:00 10.2 0 Calma -- -- 0.5 -- -- 89
2018-05-04 08:00:00 9.9 0 Calma 7 Sur 0.5 -- -- 89
2018-05-04 07:00:00 10 0 Calma 14 Este 0.1 -- -- 85
2018-05-04 06:00:00 10.2 0 Calma 13 Sur 0 -- -- 81
2018-05-04 05:00:00 10.4 0 Calma 9 Sudoeste 0 -- -- 80
2018-05-04 04:00:00 9.8 0 Calma 9 Sudeste 0 -- -- 74
2018-05-04 03:00:00 11.6 5 Este 18 Este 0 -- -- 63
2018-05-04 02:00:00 10.1 2 Sur 11 Sudoeste 0 -- -- 78
2018-05-04 01:00:00 10.2 2 Sur 9 Sudoeste 0 -- -- 79
2018-05-04 00:00:00 9.2 0 Calma 4 Sudeste 0 -- -- 76
2018-05-03 23:00:00 10.5 0 Calma 4 Sudeste 0 -- -- 70
2018-05-03 22:00:00 11.6 0 Calma 7 Este 0 -- -- 64
2018-05-03 21:00:00 12.8 2 Sudeste 15 Nordeste 0 -- -- 54
2018-05-03 20:00:00 13.4 4 Sudeste 21 Sur 0 -- -- 51
2018-05-03 19:00:00 14.3 5 Sudeste 21 Sur 0 -- -- 48
2018-05-03 18:00:00 15 5 Este 20 Este 0 -- -- 48
2018-05-03 17:00:00 14.7 4 Sur 20 Sudoeste 0 -- -- 63
2018-05-03 16:00:00 15.4 4 Sur 22 Sudeste 0 -- -- 58
2018-05-03 15:00:00 16 7 Sudeste 20 Sudeste 0 -- -- 51
2018-05-03 14:00:00 17.5 6 Sur 18 Sudeste 0 -- -- 38
2018-05-03 13:00:00 17.4 0 Calma 16 Este 0 -- -- 35
2018-05-03 12:00:00 17 5 Sudeste 15 Nordeste 0 -- -- 38
2018-05-03 11:00:00 16.3 2 Sur 17 Este 0 -- -- 42
2018-05-03 10:00:00 14.5 3 Este 15 Este 0 -- -- 49
2018-05-03 09:00:00 11.7 0 Calma 4 Este 0 -- -- 80
2018-05-03 08:00:00 7.2 0 Calma 2 Sudeste 0 -- -- 88
2018-05-03 07:00:00 7.5 0 Calma 4 Sudeste 0 -- -- 86
2018-05-03 06:00:00 8.8 0 Calma 16 Sudoeste 0 -- -- 82
2018-05-03 05:00:00 8.6 0 Calma 16 Sudoeste 0 -- -- 77
2018-05-03 04:00:00 8.9 3 Sur 18 Sudoeste 0 -- -- 64
2018-05-03 03:00:00 4.5 0 Calma 7 Nordeste 0 -- -- 87
2018-05-03 02:00:00 4.1 0 Calma 3 Sudoeste 0 -- -- 86
2018-05-03 01:00:00 4.5 0 Calma 4 Este 0 -- -- 84
2018-05-03 00:00:00 5.2 0 Calma 4 Sudeste 0 -- -- 80
2018-05-02 23:00:00 6 0 Calma 3 Sudeste 0 -- -- 74
2018-05-02 22:00:00 7.8 0 Calma 0 Calma 0 -- -- 63
2018-05-02 21:00:00 10.1 0 Calma 11 Sudeste 0 -- -- 49
2018-05-02 20:00:00 12.7 3 Sudeste 22 Sur 0 -- -- 36
2018-05-02 19:00:00 13.4 6 Sudeste 23 Sudeste 0 -- -- 32
2018-05-02 18:00:00 13.9 6 Sudeste 30 Sur 0 -- -- 30
2018-05-02 17:00:00 13.7 5 Sudeste 25 Sudeste 0 -- -- 40
2018-05-02 16:00:00 14 5 Sur 28 Sur 0 -- -- 47
2018-05-02 15:00:00 14.7 6 Sur 21 Sur 0 -- -- 45
2018-05-02 14:00:00 13.3 6 Sur 28 Sur 0 -- -- 47
2018-05-02 13:00:00 13.7 7 Sur 24 Sudeste 0 -- -- 59
2018-05-02 12:00:00 12 6 Sur 24 Sudeste 0 -- -- 64
2018-05-02 11:00:00 10.4 7 Sudeste 25 Sudeste 0 -- -- 73
2018-05-02 10:00:00 9.8 5 Sudeste 33 Sudeste 0 -- -- 80
2018-05-02 09:00:00 9.1 5 Sur 26 Sur 0 -- -- 80
2018-05-02 08:00:00 8.8 4 Sudeste 26 Sudeste 0 -- -- 82
2018-05-02 07:00:00 8.4 3 Sudeste 19 Sur 0 -- -- 84
2018-05-02 06:00:00 8.5 3 Sudeste 12 Sur 0 -- -- 83
2018-05-02 05:00:00 8.5 4 Sudeste 18 Sudeste 0 -- -- 79
2018-05-02 04:00:00 8.6 3 Sudeste 15 Sur 0 -- -- 77
2018-05-02 03:00:00 8.7 3 Sudeste 14 Sudoeste 0 -- -- 75
2018-05-02 02:00:00 8.6 4 Sudeste 16 Sur 0 -- -- 75
2018-05-02 01:00:00 8.6 5 Sudeste 25 Sudeste 0.1 -- -- 77
2018-05-02 00:00:00 8.4 4 Sudeste 14 Nordeste 0 -- -- 80
2018-05-01 23:00:00 8.1 0 Calma 14 Sur 0 -- -- 77
2018-05-01 22:00:00 8.3 5 Este 14 Este 0 -- -- 75
2018-05-01 21:00:00 8.5 0 Calma 12 Norte 0 -- -- 76
2018-05-01 20:00:00 9 0 Calma 18 Este 0 -- -- 75
2018-05-01 19:00:00 9.2 4 Este 15 Este 0 -- -- 75
2018-05-01 18:00:00 9.5 6 Norte 20 Nordeste 0 -- -- 78
2018-05-01 17:00:00 9.7 4 Sur 20 Sudeste 0 -- -- 84
2018-05-01 16:00:00 7.9 4 Sudeste 25 Nordeste 2.1 -- -- 87
2018-05-01 15:00:00 10.2 4 Este 21 Este 0 -- -- 71
2018-05-01 14:00:00 9.6 3 Norte 20 Este 0.1 -- -- 82
2018-05-01 13:00:00 9.7 3 Nordeste 15 Nordeste 0.1 -- -- 83
2018-05-01 12:00:00 9.8 0 Calma 7 Sudoeste 0 -- -- 82
2018-05-01 11:00:00 9.4 0 Calma 13 Nordeste 0 -- -- 86
2018-05-01 10:00:00 8.8 0 Calma 12 Sudoeste 0 -- -- 90
2018-05-01 09:00:00 8.1 0 Calma 13 Sudeste 9.6 -- -- 90
2018-05-01 08:00:00 8.4 4 Sudeste 19 Sudeste 0.4 -- -- 87
2018-05-01 07:00:00 8.6 0 Calma 5 Sur 0 -- -- 87
2018-05-01 06:00:00 8.9 0 Calma 8 Sudeste 0 -- -- 87
2018-05-01 05:00:00 8.4 0 Calma 3 Sur 0 -- -- 84
2018-05-01 04:00:00 8.9 0 Calma 12 Sur 0 -- -- 82
2018-05-01 03:00:00 7.9 3 Este 9 Sudeste 0 -- -- 77
2018-05-01 02:00:00 7.8 0 Calma -- -- 0 -- -- 77
2018-05-01 01:00:00 9.4 0 Calma 22 Sur 0 -- -- 73
2018-05-01 00:00:00 8.5 0 Calma 11 Sur 0 -- -- 68
2018-04-30 23:00:00 8.9 0 Calma 13 Sudeste 0 -- -- 65
2018-04-30 22:00:00 9.6 5 Sudeste 15 Sur 0 -- -- 61
2018-04-30 21:00:00 10.7 0 Calma 16 Sur 0 -- -- 56
2018-04-30 20:00:00 12.1 3 Sudeste 18 Sudoeste 0 -- -- 50
2018-04-30 19:00:00 13.3 5 Sudoeste 18 Sudoeste 0 -- -- 45
2018-04-30 18:00:00 13.8 2 Sur 12 Sudoeste 0 -- -- 42
2018-04-30 17:00:00 14.2 2 Sudeste 15 Este 0 -- -- 43
2018-04-30 16:00:00 14.5 5 Sudeste 18 Este 0 -- -- 45
2018-04-30 15:00:00 15.6 4 Sur 14 Sur 0 -- -- 44
2018-04-30 14:00:00 15.8 4 Sudeste 17 Sudeste 0 -- -- 48
2018-04-30 13:00:00 15.1 3 Sur 21 Este 0 -- -- 49
2018-04-30 12:00:00 14.6 4 Sudeste 15 Este 0 -- -- 51
2018-04-30 11:00:00 15.1 4 Sur 17 Sur 0 -- -- 48
2018-04-30 10:00:00 14.3 3 Sudeste 17 Sudeste 0 -- -- 49
2018-04-30 09:00:00 12.5 4 Sudeste 19 Este 0 -- -- 61
2018-04-30 08:00:00 7.5 2 Sudeste 9 Sudeste 0 -- -- 82
2018-04-30 07:00:00 6.9 0 Calma 8 Sur 0 -- -- 76
2018-04-30 06:00:00 8.6 0 Calma 8 Oeste 0 -- -- 67
2018-04-30 05:00:00 8.8 4 Oeste 11 Sudoeste 0 -- -- 63
2018-04-30 04:00:00 10.3 2 Oeste 22 Oeste 0 -- -- 52
2018-04-30 03:00:00 10.9 5 Oeste 32 Sudoeste 0 -- -- 49
2018-04-30 02:00:00 11.5 0 Calma 32 Oeste 0 -- -- 45
2018-04-30 01:00:00 11.8 5 Oeste 19 Noroeste 0 -- -- 48
2018-04-30 00:00:00 12.4 0 Calma 34 Oeste 0 -- -- 44
2018-04-29 23:00:00 12.4 4 Sudoeste 38 Noroeste 0 -- -- 42
2018-04-29 22:00:00 12.7 6 Sudoeste 49 Sudoeste 0 -- -- 41
2018-04-29 21:00:00 13 11 Oeste 41 Sudoeste 0 -- -- 39
2018-04-29 20:00:00 13.4 8 Sudoeste 60 Sudoeste 0 -- -- 39
2018-04-29 19:00:00 14.1 10 Oeste 41 Oeste 0 -- -- 38
2018-04-29 18:00:00 15.1 5 Sur 42 Sudoeste 0 -- -- 39
2018-04-29 17:00:00 15.4 5 Sur 30 Sudoeste 0 -- -- 41
2018-04-29 16:00:00 15.3 4 Sudeste 32 Sudoeste 0 -- -- 46
2018-04-29 15:00:00 14.9 2 Oeste 20 Sudoeste 0 -- -- 50
2018-04-29 14:00:00 15.5 3 Sudeste 29 Oeste 0 -- -- 49
2018-04-29 13:00:00 14.4 5 Sudeste 32 Sudoeste 0 -- -- 56
2018-04-29 12:00:00 14.5 0 Calma 44 Sudeste 0 -- -- 67
2018-04-29 11:00:00 13.6 6 Sudeste 33 Oeste 0 -- -- 72
2018-04-29 10:00:00 13.5 12 Sur 36 Sudeste 0.1 -- -- 75
2018-04-29 09:00:00 13.3 8 Sudeste 31 Este 0.1 -- -- 80
2018-04-29 08:00:00 13.5 6 Este 44 Sur 0 -- -- 76
2018-04-29 07:00:00 14.1 9 Sur 43 Sudeste 0 -- -- 67
2018-04-29 06:00:00 14.8 10 Sudeste 48 Sur 0 -- -- 56
2018-04-29 05:00:00 14.4 7 Este 44 Sur 0 -- -- 61
2018-04-29 04:00:00 14.3 13 Sur 49 Sur 0 -- -- 63
2018-04-29 03:00:00 14.1 8 Sudeste 42 Sudeste 0 -- -- 60
2018-04-29 02:00:00 14 7 Sudeste 40 Sur 0 -- -- 64
2018-04-29 01:00:00 14.4 15 Sur 36 Sur 0 -- -- 64
2018-04-29 00:00:00 14.2 5 Sudeste 27 Sur 0 -- -- 66
2018-04-28 23:00:00 14.6 5 Este 23 Sudeste 0 -- -- 65
2018-04-28 22:00:00 16.2 4 Sudeste 24 Sur 0 -- -- 62
2018-04-28 21:00:00 16.5 3 Sur 30 Sur 0 -- -- 64
2018-04-28 20:00:00 16.9 8 Sur 35 Sudeste 0 -- -- 61
2018-04-28 19:00:00 17.6 12 Sudeste 40 Sur 0 -- -- 62
2018-04-28 18:00:00 18.4 9 Sudeste 42 Sur 0 -- -- 55
2018-04-28 17:00:00 19.1 10 Sur 49 Este 0 -- -- 52
2018-04-28 16:00:00 20.1 14 Sur 49 Sur 0 -- -- 50
2018-04-28 15:00:00 20.5 13 Sur 37 Sudeste 0 -- -- 50
2018-04-28 14:00:00 19.6 10 Sur 32 Sur 0 -- -- 51
2018-04-28 13:00:00 20.7 9 Sur 26 Sur 0 -- -- 52
2018-04-28 12:00:00 17.8 8 Sudeste 26 Sur 0 -- -- 61
2018-04-28 11:00:00 20.1 8 Sudeste 21 Sudeste 0 -- -- 55
2018-04-28 10:00:00 18.6 0 Calma 10 Sudeste 0 -- -- 58
2018-04-28 09:00:00 15.4 5 Este 11 Este 0 -- -- 65
2018-04-28 08:00:00 10.2 0 Calma 9 Sudeste 0 -- -- 86
2018-04-28 07:00:00 8.9 0 Calma 2 Este 0 -- -- 84
2018-04-28 06:00:00 9.3 0 Calma 4 Sudeste 0 -- -- 78
2018-04-28 05:00:00 10.4 0 Calma 13 Este 0 -- -- 72
2018-04-28 04:00:00 10.7 0 Calma 14 Sudeste 0 -- -- 72
2018-04-28 03:00:00 9.4 0 Calma 4 Noroeste 0 -- -- 82
2018-04-28 02:00:00 9 0 Calma -- -- 0 -- -- 83
2018-04-28 01:00:00 9.4 0 Calma -- -- 0 -- -- 81
2018-04-28 00:00:00 9.8 0 Calma -- -- 0 -- -- 79
2018-04-27 23:00:00 10.9 0 Calma 3 Sudeste 0 -- -- 73
2018-04-27 22:00:00 12.3 0 Calma 10 Este 0 -- -- 65
2018-04-27 21:00:00 14.2 0 Calma 7 Este 0 -- -- 52
2018-04-27 20:00:00 16.2 0 Calma 13 Sur 0 -- -- 46
2018-04-27 19:00:00 17.8 0 Calma 23 Sudeste 0 -- -- 44
2018-04-27 18:00:00 19.1 6 Sur 22 Sudoeste 0 -- -- 43
2018-04-27 17:00:00 19.7 5 Sudeste 25 Sudeste 0 -- -- 40
2018-04-27 16:00:00 19.8 8 Sudeste 27 Sudeste 0 -- -- 39
2018-04-27 15:00:00 20.7 9 Sudeste 25 Este 0 -- -- 38
2018-04-27 14:00:00 20.7 6 Este 18 Este 0 -- -- 38
2018-04-27 13:00:00 21 5 Sudeste 18 Este 0 -- -- 37
2018-04-27 12:00:00 20.4 5 Este 18 Sur 0 -- -- 38
2018-04-27 11:00:00 19.9 2 Sudeste 13 Sur 0 -- -- 38
2018-04-27 10:00:00 17.9 2 Noroeste 4 Noroeste 0 -- -- 41
2018-04-27 09:00:00 -- 0 Calma -- -- 0 -- -- --
2018-04-27 08:00:00 5.8 0 Calma -- -- 0 -- -- 88
2018-04-27 07:00:00 4.8 0 Calma -- -- 0 -- -- 88
2018-04-27 06:00:00 -- 0 Calma 0 Calma 0 -- -- --
2018-04-27 05:00:00 5.1 0 Calma 2 Sudeste 0 -- -- 86
2018-04-27 04:00:00 5.4 0 Calma 2 Sur 0 -- -- 83
2018-04-27 03:00:00 6.1 0 Calma -- -- 0 -- -- 79
2018-04-27 02:00:00 6.5 0 Calma -- -- 0 -- -- 76
2018-04-27 01:00:00 7.4 0 Calma 3 Sudeste 0 -- -- 71
2018-04-27 00:00:00 8.9 0 Calma 4 Este 0 -- -- 65
2018-04-26 23:00:00 10.5 0 Calma 7 Sudeste 0 -- -- 58
2018-04-26 22:00:00 13.1 2 Oeste 10 Este 0 -- -- 45
2018-04-26 21:00:00 13.4 4 Oeste 17 Sudoeste 0 -- -- 47
2018-04-26 20:00:00 14.4 3 Oeste 17 Oeste 0 -- -- 44
2018-04-26 19:00:00 16.2 3 Oeste 17 Oeste 0 -- -- 53
2018-04-26 18:00:00 15.9 0 Calma 12 Oeste 0 -- -- 66
2018-04-26 17:00:00 14.9 2 Sur 21 Sudoeste 0 -- -- 68
2018-04-26 16:00:00 14.7 3 Sudoeste 18 Sudoeste 0 -- -- 68
2018-04-26 15:00:00 14.6 5 Sudoeste 24 Oeste 0 -- -- 67
2018-04-26 14:00:00 14.6 2 Oeste 32 Sur 0 -- -- 66
2018-04-26 13:00:00 13.6 5 Oeste 21 Sudoeste 0 -- -- 72
2018-04-26 12:00:00 13.3 5 Sudoeste 38 Sur 0 -- -- 74
2018-04-26 11:00:00 13.6 5 Norte 37 Norte 0 -- -- 71
2018-04-26 10:00:00 13.4 3 Oeste 32 Nordeste 0 -- -- 71
2018-04-26 09:00:00 13.5 4 Sudeste 33 Este 0 -- -- 70
2018-04-26 08:00:00 13.5 4 Nordeste 33 Este 0 -- -- 73
2018-04-26 07:00:00 13.8 3 Oeste 18 Sur 0 -- -- 80
2018-04-26 06:00:00 14.3 3 Sudoeste 20 Este 0 -- -- 79
2018-04-26 05:00:00 14.9 2 Oeste 19 Este 0 -- -- 74
2018-04-26 04:00:00 14.9 0 Calma 18 Sur 0 -- -- 72
2018-04-26 03:00:00 15.4 4 Sur 19 Sur 0 -- -- 62
2018-04-26 02:00:00 16.3 8 Sudeste 26 Sur 0 -- -- 47
2018-04-26 01:00:00 17.1 5 Sur 20 Sur 0 -- -- 44
2018-04-26 00:00:00 17.6 6 Sur 20 Sur 0 -- -- 45
2018-04-25 23:00:00 16.2 0 Calma 15 Sur 0 -- -- 55
2018-04-25 22:00:00 15.1 0 Calma 7 Este 0 -- -- 61
2018-04-25 21:00:00 16 0 Calma 9 Sudoeste 0 -- -- 55
2018-04-25 20:00:00 17.3 0 Calma 5 Sur 0 -- -- 52
2018-04-25 19:00:00 18.9 2 Sur 13 Sudeste 0 -- -- 42
2018-04-25 18:00:00 19.3 4 Sudeste 19 Sur 0 -- -- 47
2018-04-25 17:00:00 19.8 6 Sur 19 Sudeste 0 -- -- 43
2018-04-25 16:00:00 19.7 7 Sudeste 26 Sur 0 -- -- 45
2018-04-25 15:00:00 19.2 9 Sudeste 40 Sudeste 0 -- -- 44
2018-04-25 14:00:00 19.7 10 Sudeste 30 Sudeste 0 -- -- 42
2018-04-25 13:00:00 19.6 9 Sudeste 27 Sudeste 0 -- -- 41
2018-04-25 12:00:00 19.6 9 Este 23 Sudeste 0 -- -- 40
2018-04-25 11:00:00 18.4 7 Sudeste 24 Sudeste 0 -- -- 41
2018-04-25 10:00:00 18.6 8 Sudeste 22 Sur 0 -- -- 42
2018-04-25 09:00:00 17 9 Sudeste 24 Sur 0 -- -- 43
2018-04-25 08:00:00 16.2 6 Sudeste 20 Sudeste 0 -- -- 45
2018-04-25 07:00:00 15.3 4 Sudeste 22 Sudeste 0 -- -- 47
2018-04-25 06:00:00 16.5 7 Sudeste 21 Sur 0 -- -- 44
2018-04-25 05:00:00 15.6 6 Sudeste 21 Sur 0 -- -- 45
2018-04-25 04:00:00 15.3 5 Sudeste 14 Sudeste 0 -- -- 42
2018-04-25 03:00:00 14.3 3 Este 17 Sudeste 0 -- -- 46
2018-04-25 02:00:00 16.9 10 Sudeste 22 Sur 0 -- -- 43
2018-04-25 01:00:00 16.6 8 Sudeste 22 Sudeste 0 -- -- 43
2018-04-25 00:00:00 16.6 8 Sudeste 18 Sudeste 0 -- -- 41
2018-04-24 23:00:00 16.9 7 Sudeste 22 Sudeste 0 -- -- 41
2018-04-24 22:00:00 16 7 Sudeste 21 Sur 0 -- -- 43
2018-04-24 21:00:00 16.8 6 Sudeste 20 Sur 0 -- -- 41
2018-04-24 20:00:00 17.1 5 Sur 22 Sudeste 0 -- -- 42
2018-04-24 19:00:00 18.1 7 Sudeste 23 Sur 0 -- -- 39
2018-04-24 18:00:00 19.2 7 Sur 20 Sudeste 0 -- -- 38
2018-04-24 17:00:00 19.9 5 Sudeste 21 Sur 0 -- -- 37
2018-04-24 16:00:00 20.7 8 Sudeste 23 Sur 0 -- -- 35
2018-04-24 15:00:00 20.7 9 Este 26 Este 0 -- -- 35
2018-04-24 14:00:00 20.4 9 Este 22 Este 0 -- -- 36
2018-04-24 13:00:00 22.1 5 Sur 20 Sur 0 -- -- 37
2018-04-24 12:00:00 22.3 4 Sudeste 17 Sudoeste 0 -- -- 35
2018-04-24 11:00:00 20.9 4 Este 17 Sudeste 0 -- -- 37
2018-04-24 10:00:00 19.4 6 Sudeste 24 Sudeste 0 -- -- 40
2018-04-24 09:00:00 17.4 7 Sudeste 27 Sur 0 -- -- 42
2018-04-24 08:00:00 15.2 6 Sur 26 Sur 0 -- -- 45
2018-04-24 07:00:00 14.9 7 Sudeste 19 Sur 0 -- -- 45
2018-04-24 06:00:00 15.3 5 Sur 22 Sur 0 -- -- 45
2018-04-24 05:00:00 14.8 4 Sudeste 21 Sur 0 -- -- 48
2018-04-24 04:00:00 15.5 8 Sur 21 Sur 0 -- -- 49
2018-04-24 03:00:00 16 6 Sudeste 20 Sur 0 -- -- 48
2018-04-24 02:00:00 15.4 6 Sur 22 Sur 0 -- -- 54
2018-04-24 01:00:00 14.4 5 Sudeste 13 Sur 0 -- -- 54
2018-04-24 00:00:00 12.7 2 Sudeste 13 Sur 0 -- -- 65
2018-04-23 23:00:00 12.9 0 Calma 5 Este 0 -- -- 66
2018-04-23 22:00:00 13.2 0 Calma 2 Este 0 -- -- 67
2018-04-23 21:00:00 15.3 0 Calma -- -- 0 -- -- 60
2018-04-23 20:00:00 17.9 0 Calma 13 Sudoeste 0 -- -- 49
2018-04-23 19:00:00 19.2 4 Sur 16 Sudeste 0 -- -- 45
2018-04-23 18:00:00 19.9 8 Sudeste 24 Sudeste 0 -- -- 42
2018-04-23 17:00:00 19.7 6 Sudeste 31 Sudeste 0 -- -- 39
2018-04-23 16:00:00 20.3 9 Sur 25 Sudeste 0 -- -- 42
2018-04-23 15:00:00 20.3 10 Sudeste 24 Sudeste 0 -- -- 43
2018-04-23 14:00:00 20.9 7 Este 23 Este 0 -- -- 38
2018-04-23 13:00:00 21.2 8 Sudeste 22 Este 0 -- -- 35
2018-04-23 12:00:00 21.2 7 Sudeste 19 Sudeste 0 -- -- 32
2018-04-23 11:00:00 19.9 9 Sudeste 22 Sudeste 0 -- -- 32
2018-04-23 10:00:00 19.7 6 Este 14 Sudeste 0 -- -- 36
2018-04-23 09:00:00 17.6 4 Sudeste 18 Sudeste 0 -- -- 42
2018-04-23 08:00:00 15.2 5 Sudeste 16 Sudeste 0 -- -- 47
2018-04-23 07:00:00 13.8 6 Sudeste 15 Sudeste 0 -- -- 52
2018-04-23 06:00:00 13 3 Este 9 Este 0 -- -- 58
2018-04-23 05:00:00 13.3 3 Este 9 Nordeste 0 -- -- 58
2018-04-23 04:00:00 14.1 3 Este 11 Sudeste 0 -- -- 51
2018-04-23 03:00:00 14.8 3 Este 16 Sudeste 0 -- -- 48
2018-04-23 02:00:00 14.5 4 Sudeste 12 Sudeste 0 -- -- 48
2018-04-23 01:00:00 14.8 5 Sudeste 14 Sudeste 0 -- -- 46
2018-04-23 00:00:00 15.3 5 Este 17 Sudeste 0 -- -- 45
2018-04-22 23:00:00 14.2 3 Este 8 Sudeste 0 -- -- 50
2018-04-22 22:00:00 15.3 5 Este 16 Este 0 -- -- 50
2018-04-22 21:00:00 16.1 7 Sudeste 26 Sur 0 -- -- 51
2018-04-22 20:00:00 17.2 8 Sur 29 Sur 0 -- -- 49
2018-04-22 19:00:00 18.5 8 Sudeste 24 Sudeste 0 -- -- 46
2018-04-22 18:00:00 19.5 8 Sudeste 24 Este 0 -- -- 45
2018-04-22 17:00:00 19.8 8 Este 20 Sudeste 0 -- -- 45
2018-04-22 16:00:00 20.3 8 Sudeste 21 Este 0 -- -- 48
2018-04-22 15:00:00 20 8 Sudeste 23 Sudeste 0 -- -- 45
2018-04-22 14:00:00 20.7 7 Sudeste 21 Sur 0 -- -- 42
2018-04-22 13:00:00 20.9 6 Sudeste 19 Sudeste 0 -- -- 40
2018-04-22 12:00:00 20.3 6 Este 19 Sudeste 0 -- -- 42
2018-04-22 11:00:00 19.8 6 Este 17 Sudeste 0 -- -- 44
2018-04-22 10:00:00 16.6 2 Sudeste 12 Sur 0 -- -- 62
2018-04-22 09:00:00 14.8 4 Este 12 Sudeste 0 -- -- 63
2018-04-22 08:00:00 9.7 0 Calma 6 Este 0 -- -- 87
2018-04-22 07:00:00 8.7 0 Calma 6 Este 0 -- -- 87
2018-04-22 06:00:00 8.3 0 Calma 5 Este 0 -- -- 86
2018-04-22 05:00:00 9.4 0 Calma 6 Este 0 -- -- 81
2018-04-22 04:00:00 10.4 0 Calma 6 Este 0 -- -- 74
2018-04-22 03:00:00 11.6 0 Calma 8 Este 0 -- -- 69
2018-04-22 02:00:00 11.3 0 Calma 9 Este 0 -- -- 74
2018-04-22 01:00:00 10.7 3 Este 6 Este 0 -- -- 81
2018-04-22 00:00:00 11.5 0 Calma 7 Este 0 -- -- 76